SBOSBO EBH / DAOY
Speedbird OnlineSpeedbird Online EBH / DAOY

El Bayadh Airport
08:15 32.1°C

Location El Bayadh, Algeria
Latitude: 33.721666666699996
Longitude: 1.0925
Local Time 08:15 on 18 Jul 2024
UTC 0 hours ()
Currency £1 equals DZD 174.66
METAR DAOY 180700Z 12004KT 6000 FEW030 SCT233 31/02 Q1025
TAF
Weather As Of 18 Jul 2024 08:15
Description Clear sky
Wind 6 km/h from North (344°)
Cloud Cover 8%
Precipitation Rain: none, Snow: none
Sunrise 04:58
Sunset 19:05
Codes IATA: EBH
ICAO: DAOY
Altitude 1369 Meter / 4493 Feet
Distance 1,979 KM / 1,230 Miles
from London.



Support Speedbird Online

© 2017-2024 Speedbird Online